sensor_id;sensor_type;location;lat;lon;timestamp;pressure;altitude;pressure_sealevel;temperature;humidity
36258;BME280;22294;52.044;4.582;2022-08-19T00:00:43;75486.63;;;-144.37;70.34
36258;BME280;22294;52.044;4.582;2022-08-19T00:03:09;75486.63;;;-144.37;70.52
36258;BME280;22294;52.044;4.582;2022-08-19T00:05:34;75494.78;;;-144.37;70.67
36258;BME280;22294;52.044;4.582;2022-08-19T00:07:59;75498.88;;;-144.37;71.01
36258;BME280;22294;52.044;4.582;2022-08-19T00:10:25;75500.94;;;-144.37;71.20
36258;BME280;22294;52.044;4.582;2022-08-19T00:12:50;75502.97;;;-144.37;71.23
36258;BME280;22294;52.044;4.582;2022-08-19T00:15:19;75505.00;;;-144.37;71.29
36258;BME280;22294;52.044;4.582;2022-08-19T00:17:45;75509.09;;;-144.37;71.47
36258;BME280;22294;52.044;4.582;2022-08-19T00:20:21;75513.19;;;-144.37;71.40
36258;BME280;22294;52.044;4.582;2022-08-19T00:22:47;75519.31;;;-144.37;71.38
36258;BME280;22294;52.044;4.582;2022-08-19T00:25:13;75529.56;;;-144.37;71.32
36258;BME280;22294;52.044;4.582;2022-08-19T00:27:39;75531.59;;;-144.37;71.35
36258;BME280;22294;52.044;4.582;2022-08-19T00:30:06;75525.47;;;-144.37;71.41
36258;BME280;22294;52.044;4.582;2022-08-19T00:32:32;75535.69;;;-144.37;71.68
36258;BME280;22294;52.044;4.582;2022-08-19T00:34:59;75541.81;;;-144.37;71.76
36258;BME280;22294;52.044;4.582;2022-08-19T00:37:25;75539.78;;;-144.37;71.79
36258;BME280;22294;52.044;4.582;2022-08-19T00:39:51;75525.47;;;-144.37;71.98
36258;BME280;22294;52.044;4.582;2022-08-19T00:42:18;75523.41;;;-144.37;71.70
36258;BME280;22294;52.044;4.582;2022-08-19T00:44:45;75519.31;;;-144.37;71.45
36258;BME280;22294;52.044;4.582;2022-08-19T00:47:10;75517.28;;;-144.37;71.74
36258;BME280;22294;52.044;4.582;2022-08-19T00:49:44;75515.25;;;-144.37;71.64
36258;BME280;22294;52.044;4.582;2022-08-19T00:52:16;75519.31;;;-144.37;71.71
36258;BME280;22294;52.044;4.582;2022-08-19T00:54:44;75525.47;;;-144.37;71.80
36258;BME280;22294;52.044;4.582;2022-08-19T00:57:12;75537.72;;;-144.37;71.89
36258;BME280;22294;52.044;4.582;2022-08-19T00:59:42;75537.72;;;-144.37;71.94
36258;BME280;22294;52.044;4.582;2022-08-19T01:02:08;75537.72;;;-144.37;71.97
36258;BME280;22294;52.044;4.582;2022-08-19T01:04:34;75533.63;;;-144.37;72.10
36258;BME280;22294;52.044;4.582;2022-08-19T01:06:59;75535.69;;;-144.37;71.91
36258;BME280;22294;52.044;4.582;2022-08-19T01:09:26;75545.91;;;-144.37;72.10
36258;BME280;22294;52.044;4.582;2022-08-19T01:11:52;75545.91;;;-144.37;71.89
36258;BME280;22294;52.044;4.582;2022-08-19T01:14:18;75554.09;;;-144.37;71.89
36258;BME280;22294;52.044;4.582;2022-08-19T01:16:45;75556.13;;;-144.37;71.99
36258;BME280;22294;52.044;4.582;2022-08-19T01:19:39;75556.13;;;-144.37;71.70
36258;BME280;22294;52.044;4.582;2022-08-19T01:22:09;75558.19;;;-144.37;71.79
36258;BME280;22294;52.044;4.582;2022-08-19T01:24:37;75568.41;;;-144.37;72.01
36258;BME280;22294;52.044;4.582;2022-08-19T01:27:06;75564.31;;;-144.37;72.08
36258;BME280;22294;52.044;4.582;2022-08-19T01:29:32;75560.22;;;-144.37;72.14
36258;BME280;22294;52.044;4.582;2022-08-19T01:32:00;75560.22;;;-144.37;72.07
36258;BME280;22294;52.044;4.582;2022-08-19T01:34:26;75564.31;;;-144.37;72.51
36258;BME280;22294;52.044;4.582;2022-08-19T01:36:51;75560.22;;;-144.37;72.31
36258;BME280;22294;52.044;4.582;2022-08-19T01:39:23;75562.28;;;-144.37;72.38
36258;BME280;22294;52.044;4.582;2022-08-19T01:41:49;75562.28;;;-144.37;72.49
36258;BME280;22294;52.044;4.582;2022-08-19T01:44:16;75552.03;;;-144.37;72.23
36258;BME280;22294;52.044;4.582;2022-08-19T01:46:43;75552.03;;;-144.37;72.47
36258;BME280;22294;52.044;4.582;2022-08-19T01:49:09;75543.88;;;-144.37;72.25
36258;BME280;22294;52.044;4.582;2022-08-19T01:51:35;75535.69;;;-144.37;72.31
36258;BME280;22294;52.044;4.582;2022-08-19T01:54:00;75539.78;;;-144.37;72.14
36258;BME280;22294;52.044;4.582;2022-08-19T01:56:25;75547.97;;;-144.37;72.65
36258;BME280;22294;52.044;4.582;2022-08-19T01:58:56;75552.03;;;-144.37;72.80
36258;BME280;22294;52.044;4.582;2022-08-19T02:01:23;75554.09;;;-144.37;73.01
36258;BME280;22294;52.044;4.582;2022-08-19T02:03:48;75552.03;;;-144.37;72.93
36258;BME280;22294;52.044;4.582;2022-08-19T02:06:13;75552.03;;;-144.37;72.60
36258;BME280;22294;52.044;4.582;2022-08-19T02:08:39;75554.09;;;-144.37;72.98
36258;BME280;22294;52.044;4.582;2022-08-19T02:11:06;75564.31;;;-144.37;72.63
36258;BME280;22294;52.044;4.582;2022-08-19T02:13:32;75570.44;;;-144.37;72.74
36258;BME280;22294;52.044;4.582;2022-08-19T02:15:58;75572.50;;;-144.37;72.74
36258;BME280;22294;52.044;4.582;2022-08-19T02:18:24;75578.63;;;-144.37;72.63
36258;BME280;22294;52.044;4.582;2022-08-19T02:20:49;75570.44;;;-144.37;72.89
36258;BME280;22294;52.044;4.582;2022-08-19T02:23:16;75570.44;;;-144.37;72.72
36258;BME280;22294;52.044;4.582;2022-08-19T02:25:43;75574.53;;;-144.37;72.64
36258;BME280;22294;52.044;4.582;2022-08-19T02:28:09;75572.50;;;-144.37;73.02
36258;BME280;22294;52.044;4.582;2022-08-19T02:30:34;75570.44;;;-144.37;72.84
36258;BME280;22294;52.044;4.582;2022-08-19T02:32:59;75580.69;;;-144.37;72.98
36258;BME280;22294;52.044;4.582;2022-08-19T02:35:25;75580.69;;;-144.37;72.81
36258;BME280;22294;52.044;4.582;2022-08-19T02:37:51;75582.72;;;-144.37;72.85
36258;BME280;22294;52.044;4.582;2022-08-19T02:40:34;75584.75;;;-144.37;72.84
36258;BME280;22294;52.044;4.582;2022-08-19T02:43:05;75578.63;;;-144.37;72.87
36258;BME280;22294;52.044;4.582;2022-08-19T02:45:37;75576.59;;;-144.37;72.98
36258;BME280;22294;52.044;4.582;2022-08-19T02:48:04;75572.50;;;-144.37;73.07
36258;BME280;22294;52.044;4.582;2022-08-19T02:50:30;75570.44;;;-144.37;73.16
36258;BME280;22294;52.044;4.582;2022-08-19T02:52:55;75564.31;;;-144.37;72.91
36258;BME280;22294;52.044;4.582;2022-08-19T02:55:21;75564.31;;;-144.37;73.38
36258;BME280;22294;52.044;4.582;2022-08-19T02:57:47;75558.19;;;-144.37;73.27
36258;BME280;22294;52.044;4.582;2022-08-19T03:00:13;75568.41;;;-144.37;73.42
36258;BME280;22294;52.044;4.582;2022-08-19T03:02:39;75562.28;;;-144.37;73.20
36258;BME280;22294;52.044;4.582;2022-08-19T03:05:05;75568.41;;;-144.37;73.52
36258;BME280;22294;52.044;4.582;2022-08-19T03:07:31;75570.44;;;-144.37;73.47
36258;BME280;22294;52.044;4.582;2022-08-19T03:09:57;75574.53;;;-144.37;73.78
36258;BME280;22294;52.044;4.582;2022-08-19T03:12:22;75572.50;;;-144.37;73.94
36258;BME280;22294;52.044;4.582;2022-08-19T03:14:47;75568.41;;;-144.37;73.71
36258;BME280;22294;52.044;4.582;2022-08-19T03:17:13;75568.41;;;-144.37;73.94
36258;BME280;22294;52.044;4.582;2022-08-19T03:19:38;75574.53;;;-144.37;73.86
36258;BME280;22294;52.044;4.582;2022-08-19T03:22:04;75570.44;;;-144.37;74.01
36258;BME280;22294;52.044;4.582;2022-08-19T03:24:30;75568.41;;;-144.37;74.22
36258;BME280;22294;52.044;4.582;2022-08-19T03:26:55;75568.41;;;-144.37;74.02
36258;BME280;22294;52.044;4.582;2022-08-19T03:29:23;75566.34;;;-144.37;73.90
36258;BME280;22294;52.044;4.582;2022-08-19T03:31:49;75568.41;;;-144.37;73.94
36258;BME280;22294;52.044;4.582;2022-08-19T03:34:28;75566.34;;;-144.37;73.86
36258;BME280;22294;52.044;4.582;2022-08-19T03:36:56;75570.44;;;-144.37;74.44
36258;BME280;22294;52.044;4.582;2022-08-19T03:39:23;75574.53;;;-144.37;74.32
36258;BME280;22294;52.044;4.582;2022-08-19T03:41:51;75572.50;;;-144.37;74.16
36258;BME280;22294;52.044;4.582;2022-08-19T03:44:19;75580.69;;;-144.37;74.16
36258;BME280;22294;52.044;4.582;2022-08-19T03:46:54;75576.59;;;-144.37;74.31
36258;BME280;22294;52.044;4.582;2022-08-19T03:49:21;75576.59;;;-144.37;74.73
36258;BME280;22294;52.044;4.582;2022-08-19T03:51:48;75580.69;;;-144.37;74.69
36258;BME280;22294;52.044;4.582;2022-08-19T03:54:17;75580.69;;;-144.37;74.69
36258;BME280;22294;52.044;4.582;2022-08-19T03:56:45;75576.59;;;-144.37;74.77
36258;BME280;22294;52.044;4.582;2022-08-19T03:59:21;75588.84;;;-144.37;74.73
36258;BME280;22294;52.044;4.582;2022-08-19T04:01:50;75595.00;;;-144.37;74.88
36258;BME280;22294;52.044;4.582;2022-08-19T04:04:16;75599.06;;;-144.37;74.99
36258;BME280;22294;52.044;4.582;2022-08-19T04:06:43;75603.16;;;-144.37;75.12
36258;BME280;22294;52.044;4.582;2022-08-19T04:09:10;75607.25;;;-144.37;75.18
36258;BME280;22294;52.044;4.582;2022-08-19T04:11:41;75603.16;;;-144.37;75.55
36258;BME280;22294;52.044;4.582;2022-08-19T04:14:07;75597.03;;;-144.37;75.60
36258;BME280;22294;52.044;4.582;2022-08-19T04:16:33;75584.75;;;-144.37;75.42
36258;BME280;22294;52.044;4.582;2022-08-19T04:19:00;75584.75;;;-144.37;75.51
36258;BME280;22294;52.044;4.582;2022-08-19T04:21:27;75586.81;;;-144.37;76.01
36258;BME280;22294;52.044;4.582;2022-08-19T04:23:53;75580.69;;;-144.37;76.06
36258;BME280;22294;52.044;4.582;2022-08-19T04:26:28;75574.53;;;-144.37;75.71
36258;BME280;22294;52.044;4.582;2022-08-19T04:28:58;75574.53;;;-144.37;75.79
36258;BME280;22294;52.044;4.582;2022-08-19T04:31:27;75578.63;;;-144.37;76.13
36258;BME280;22294;52.044;4.582;2022-08-19T04:33:54;75584.75;;;-144.37;76.15
36258;BME280;22294;52.044;4.582;2022-08-19T04:36:23;75595.00;;;-144.37;75.88
36258;BME280;22294;52.044;4.582;2022-08-19T04:38:53;75584.75;;;-144.37;75.88
36258;BME280;22294;52.044;4.582;2022-08-19T04:41:20;75582.72;;;-144.37;75.90
36258;BME280;22294;52.044;4.582;2022-08-19T04:44:04;75570.44;;;-144.37;76.24
36258;BME280;22294;52.044;4.582;2022-08-19T04:46:30;75572.50;;;-144.37;76.86
36258;BME280;22294;52.044;4.582;2022-08-19T04:48:57;75564.31;;;-144.37;77.11
36258;BME280;22294;52.044;4.582;2022-08-19T04:51:23;75554.09;;;-144.37;77.20
36258;BME280;22294;52.044;4.582;2022-08-19T04:53:48;75552.03;;;-144.37;77.57
36258;BME280;22294;52.044;4.582;2022-08-19T04:56:15;75547.97;;;-144.37;77.43
36258;BME280;22294;52.044;4.582;2022-08-19T04:58:43;75552.03;;;-144.37;77.72
36258;BME280;22294;52.044;4.582;2022-08-19T05:01:15;75539.78;;;-144.37;77.92
36258;BME280;22294;52.044;4.582;2022-08-19T05:03:42;75535.69;;;-144.37;78.20
36258;BME280;22294;52.044;4.582;2022-08-19T05:06:10;75527.50;;;-144.37;77.78
36258;BME280;22294;52.044;4.582;2022-08-19T05:08:36;75513.19;;;-144.37;77.80
36258;BME280;22294;52.044;4.582;2022-08-19T05:11:09;75527.50;;;-144.37;77.66
36258;BME280;22294;52.044;4.582;2022-08-19T05:13:36;75535.69;;;-144.37;78.43
36258;BME280;22294;52.044;4.582;2022-08-19T05:16:01;75531.59;;;-144.37;78.61
36258;BME280;22294;52.044;4.582;2022-08-19T05:18:26;75531.59;;;-144.37;78.78
36258;BME280;22294;52.044;4.582;2022-08-19T05:21:14;75519.31;;;-144.37;78.27
36258;BME280;22294;52.044;4.582;2022-08-19T05:23:58;75515.25;;;-144.37;78.52
36258;BME280;22294;52.044;4.582;2022-08-19T05:26:25;75507.06;;;-144.37;78.46
36258;BME280;22294;52.044;4.582;2022-08-19T05:28:52;75509.09;;;-144.37;78.49
36258;BME280;22294;52.044;4.582;2022-08-19T05:31:17;75500.94;;;-144.37;78.59
36258;BME280;22294;52.044;4.582;2022-08-19T05:33:43;75492.75;;;-144.37;78.28
36258;BME280;22294;52.044;4.582;2022-08-19T05:36:08;75486.63;;;-144.37;78.34
36258;BME280;22294;52.044;4.582;2022-08-19T05:38:34;75476.38;;;-144.37;78.37
36258;BME280;22294;52.044;4.582;2022-08-19T05:41:08;75474.34;;;-144.37;78.21
36258;BME280;22294;52.044;4.582;2022-08-19T05:43:33;75470.25;;;-144.37;77.79
36258;BME280;22294;52.044;4.582;2022-08-19T05:45:59;75466.16;;;-144.37;78.03
36258;BME280;22294;52.044;4.582;2022-08-19T05:48:24;75460.03;;;-144.37;77.93
36258;BME280;22294;52.044;4.582;2022-08-19T05:50:49;75453.91;;;-144.37;77.68
36258;BME280;22294;52.044;4.582;2022-08-19T05:53:15;75451.84;;;-144.37;77.74
36258;BME280;22294;52.044;4.582;2022-08-19T05:55:41;75435.50;;;-144.37;77.24
36258;BME280;22294;52.044;4.582;2022-08-19T05:58:07;75439.59;;;-144.37;77.39
36258;BME280;22294;52.044;4.582;2022-08-19T06:00:33;75435.50;;;-144.37;77.17
36258;BME280;22294;52.044;4.582;2022-08-19T06:02:59;75431.41;;;-144.37;77.26
36258;BME280;22294;52.044;4.582;2022-08-19T06:05:28;75431.41;;;-144.37;77.14
36258;BME280;22294;52.044;4.582;2022-08-19T06:07:54;75423.22;;;-144.37;76.82
36258;BME280;22294;52.044;4.582;2022-08-19T06:10:19;75417.09;;;-144.37;76.61
36258;BME280;22294;52.044;4.582;2022-08-19T06:12:46;75423.22;;;-144.37;77.17
36258;BME280;22294;52.044;4.582;2022-08-19T06:15:13;75413.00;;;-144.37;76.72
36258;BME280;22294;52.044;4.582;2022-08-19T06:17:39;75417.09;;;-144.37;76.78
36258;BME280;22294;52.044;4.582;2022-08-19T06:20:06;75421.19;;;-144.37;76.96
36258;BME280;22294;52.044;4.582;2022-08-19T06:22:37;75419.13;;;-144.37;76.61
36258;BME280;22294;52.044;4.582;2022-08-19T06:25:03;75421.19;;;-144.37;76.62
36258;BME280;22294;52.044;4.582;2022-08-19T06:27:28;75410.94;;;-144.37;76.60
36258;BME280;22294;52.044;4.582;2022-08-19T06:29:55;75406.88;;;-144.37;76.60
36258;BME280;22294;52.044;4.582;2022-08-19T06:32:21;75398.69;;;-144.37;76.47
36258;BME280;22294;52.044;4.582;2022-08-19T06:34:46;75384.38;;;-144.37;76.14
36258;BME280;22294;52.044;4.582;2022-08-19T06:37:12;75386.41;;;-144.37;75.88
36258;BME280;22294;52.044;4.582;2022-08-19T06:39:39;75372.09;;;-144.37;75.39
36258;BME280;22294;52.044;4.582;2022-08-19T06:42:06;75378.25;;;-144.37;75.32
36258;BME280;22294;52.044;4.582;2022-08-19T06:44:34;75365.97;;;-144.37;75.40
36258;BME280;22294;52.044;4.582;2022-08-19T06:47:03;75351.66;;;-144.37;75.28
36258;BME280;22294;52.044;4.582;2022-08-19T06:49:29;75351.66;;;-144.37;75.12
36258;BME280;22294;52.044;4.582;2022-08-19T06:51:56;75347.56;;;-144.37;75.06
36258;BME280;22294;52.044;4.582;2022-08-19T06:54:22;75345.53;;;-144.37;74.70
36258;BME280;22294;52.044;4.582;2022-08-19T06:56:48;75337.34;;;-144.37;nan
36258;BME280;22294;52.044;4.582;2022-08-19T06:59:19;75333.25;;;-144.37;74.70
36258;BME280;22294;52.044;4.582;2022-08-19T07:01:51;75325.06;;;-144.37;74.27
36258;BME280;22294;52.044;4.582;2022-08-19T07:04:20;75314.84;;;-144.37;73.79
36258;BME280;22294;52.044;4.582;2022-08-19T07:06:46;75312.81;;;-144.37;73.87
36258;BME280;22294;52.044;4.582;2022-08-19T07:09:14;75310.75;;;-144.37;73.64
36258;BME280;22294;52.044;4.582;2022-08-19T07:11:46;75308.72;;;-144.37;73.83
36258;BME280;22294;52.044;4.582;2022-08-19T07:14:13;75298.50;;;-144.37;73.33
36258;BME280;22294;52.044;4.582;2022-08-19T07:16:39;75288.28;;;-144.37;72.94
36258;BME280;22294;52.044;4.582;2022-08-19T07:19:04;75282.13;;;-144.37;72.57
36258;BME280;22294;52.044;4.582;2022-08-19T07:21:29;75278.03;;;-144.37;72.62
36258;BME280;22294;52.044;4.582;2022-08-19T07:23:56;75265.78;;;-144.37;72.26
36258;BME280;22294;52.044;4.582;2022-08-19T07:26:27;75261.69;;;-144.37;72.09
36258;BME280;22294;52.044;4.582;2022-08-19T07:28:54;75261.69;;;-144.37;71.89
36258;BME280;22294;52.044;4.582;2022-08-19T07:31:21;75249.41;;;-144.37;71.56
36258;BME280;22294;52.044;4.582;2022-08-19T07:33:48;75247.38;;;-144.37;71.64
36258;BME280;22294;52.044;4.582;2022-08-19T07:36:17;75241.25;;;-144.37;72.21
36258;BME280;22294;52.044;4.582;2022-08-19T07:38:45;75241.25;;;-144.37;71.61
36258;BME280;22294;52.044;4.582;2022-08-19T07:41:14;75249.41;;;-144.37;71.39
36258;BME280;22294;52.044;4.582;2022-08-19T07:43:40;75251.47;;;-144.37;71.54
36258;BME280;22294;52.044;4.582;2022-08-19T07:46:06;75243.28;;;-144.37;71.58
36258;BME280;22294;52.044;4.582;2022-08-19T07:48:31;75233.06;;;-144.37;71.19
36258;BME280;22294;52.044;4.582;2022-08-19T07:50:59;75243.28;;;-144.37;71.10
36258;BME280;22294;52.044;4.582;2022-08-19T07:53:28;75237.16;;;-144.37;71.34
36258;BME280;22294;52.044;4.582;2022-08-19T07:55:54;75220.78;;;-144.37;71.02
36258;BME280;22294;52.044;4.582;2022-08-19T07:58:21;75208.53;;;-144.37;70.86
36258;BME280;22294;52.044;4.582;2022-08-19T08:00:48;75206.47;;;-144.37;70.26
36258;BME280;22294;52.044;4.582;2022-08-19T08:03:16;75212.63;;;-144.37;70.35
36258;BME280;22294;52.044;4.582;2022-08-19T08:05:42;75208.53;;;-144.37;70.47
36258;BME280;22294;52.044;4.582;2022-08-19T08:08:26;75218.75;;;-144.37;70.17
36258;BME280;22294;52.044;4.582;2022-08-19T08:11:11;75208.53;;;-144.37;69.89
36258;BME280;22294;52.044;4.582;2022-08-19T08:13:37;75226.94;;;-144.37;70.31
36258;BME280;22294;52.044;4.582;2022-08-19T08:16:03;75224.88;;;-144.37;70.11
36258;BME280;22294;52.044;4.582;2022-08-19T08:18:29;75228.97;;;-144.37;69.80
36258;BME280;22294;52.044;4.582;2022-08-19T08:20:57;75218.75;;;-144.37;70.04
36258;BME280;22294;52.044;4.582;2022-08-19T08:23:23;75208.53;;;-144.37;70.25
36258;BME280;22294;52.044;4.582;2022-08-19T08:25:50;75200.34;;;-144.37;69.66
36258;BME280;22294;52.044;4.582;2022-08-19T08:28:19;75192.16;;;-144.37;69.37
36258;BME280;22294;52.044;4.582;2022-08-19T08:30:45;75192.16;;;-144.37;69.12
36258;BME280;22294;52.044;4.582;2022-08-19T08:33:13;75192.16;;;-144.37;69.34
36258;BME280;22294;52.044;4.582;2022-08-19T08:35:40;75192.16;;;-144.37;69.18
36258;BME280;22294;52.044;4.582;2022-08-19T08:38:07;75179.91;;;-144.37;69.10
36258;BME280;22294;52.044;4.582;2022-08-19T08:43:29;75190.13;;;-144.37;68.29
36258;BME280;22294;52.044;4.582;2022-08-19T08:46:11;75177.84;;;-144.37;68.13
36258;BME280;22294;52.044;4.582;2022-08-19T08:48:46;75165.59;;;-144.37;68.17
36258;BME280;22294;52.044;4.582;2022-08-19T08:51:20;75161.50;;;-144.37;68.37
36258;BME280;22294;52.044;4.582;2022-08-19T08:53:48;75153.31;;;-144.37;68.19
36258;BME280;22294;52.044;4.582;2022-08-19T08:56:15;75147.19;;;-144.37;67.68
36258;BME280;22294;52.044;4.582;2022-08-19T08:59:21;75139.00;;;-144.37;67.22
36258;BME280;22294;52.044;4.582;2022-08-19T09:01:45;75139.00;;;-144.37;67.31
36258;BME280;22294;52.044;4.582;2022-08-19T09:04:12;75118.56;;;-144.37;67.10
36258;BME280;22294;52.044;4.582;2022-08-19T09:06:46;75085.84;;;-144.37;66.32
36258;BME280;22294;52.044;4.582;2022-08-19T09:09:30;75057.22;;;-144.37;65.29
36258;BME280;22294;52.044;4.582;2022-08-19T09:15:15;75036.78;;;-144.37;64.59
36258;BME280;22294;52.044;4.582;2022-08-19T09:17:41;75026.56;;;-144.37;64.07
36258;BME280;22294;52.044;4.582;2022-08-19T09:22:40;75012.25;;;-144.37;63.52
36258;BME280;22294;52.044;4.582;2022-08-19T09:25:07;75010.19;;;-144.37;63.65
36258;BME280;22294;52.044;4.582;2022-08-19T09:27:34;75008.16;;;-144.37;62.89
36258;BME280;22294;52.044;4.582;2022-08-19T09:30:03;75010.19;;;-144.37;62.59
36258;BME280;22294;52.044;4.582;2022-08-19T09:32:29;75008.16;;;-144.37;61.78
36258;BME280;22294;52.044;4.582;2022-08-19T09:34:55;75016.34;;;-144.37;62.13
36258;BME280;22294;52.044;4.582;2022-08-19T09:37:23;75012.25;;;-144.37;62.38
36258;BME280;22294;52.044;4.582;2022-08-19T09:39:49;75008.16;;;-144.37;61.97
36258;BME280;22294;52.044;4.582;2022-08-19T09:42:14;75006.09;;;-144.37;61.63
36258;BME280;22294;52.044;4.582;2022-08-19T09:44:41;75018.38;;;-144.37;61.56
36258;BME280;22294;52.044;4.582;2022-08-19T09:47:08;75020.41;;;-144.37;61.67
36258;BME280;22294;52.044;4.582;2022-08-19T09:49:34;75020.41;;;-144.37;61.74
36258;BME280;22294;52.044;4.582;2022-08-19T09:52:00;75032.69;;;-144.37;61.87
36258;BME280;22294;52.044;4.582;2022-08-19T09:54:25;75065.41;;;-144.37;62.87
36258;BME280;22294;52.044;4.582;2022-08-19T09:56:52;75079.72;;;-144.37;63.89
36258;BME280;22294;52.044;4.582;2022-08-19T09:59:18;75083.81;;;-144.37;65.76
36258;BME280;22294;52.044;4.582;2022-08-19T10:01:43;75100.16;;;-144.37;65.87
36258;BME280;22294;52.044;4.582;2022-08-19T10:04:09;75120.59;;;-144.37;67.65
36258;BME280;22294;52.044;4.582;2022-08-19T10:06:36;75141.06;;;-144.37;68.01
36258;BME280;22294;52.044;4.582;2022-08-19T10:09:03;75141.06;;;-144.37;68.96
36258;BME280;22294;52.044;4.582;2022-08-19T10:11:31;75151.28;;;-144.37;69.58
36258;BME280;22294;52.044;4.582;2022-08-19T10:13:57;75147.19;;;-144.37;69.30
36258;BME280;22294;52.044;4.582;2022-08-19T10:16:23;75141.06;;;-144.37;69.86
36258;BME280;22294;52.044;4.582;2022-08-19T10:18:50;75130.81;;;-144.37;69.71
36258;BME280;22294;52.044;4.582;2022-08-19T10:21:19;75118.56;;;-144.37;69.49
36258;BME280;22294;52.044;4.582;2022-08-19T10:23:47;75100.16;;;-144.37;69.13
36258;BME280;22294;52.044;4.582;2022-08-19T10:26:17;75081.75;;;-144.37;68.51
36258;BME280;22294;52.044;4.582;2022-08-19T10:28:43;75063.34;;;-144.37;68.00
36258;BME280;22294;52.044;4.582;2022-08-19T10:31:11;75040.88;;;-144.37;68.61
36258;BME280;22294;52.044;4.582;2022-08-19T10:33:37;75018.38;;;-144.37;66.87
36258;BME280;22294;52.044;4.582;2022-08-19T10:36:08;75010.19;;;-144.37;66.13
36258;BME280;22294;52.044;4.582;2022-08-19T10:38:34;74991.78;;;-144.37;64.38
36258;BME280;22294;52.044;4.582;2022-08-19T10:41:08;74979.53;;;-144.37;61.97
36258;BME280;22294;52.044;4.582;2022-08-19T10:43:33;74963.16;;;-144.37;61.56
36258;BME280;22294;52.044;4.582;2022-08-19T10:46:04;74944.78;;;-144.37;61.22
36258;BME280;22294;52.044;4.582;2022-08-19T10:48:31;74926.38;;;-144.37;60.30
36258;BME280;22294;52.044;4.582;2022-08-19T10:50:57;74922.28;;;-144.37;60.01
36258;BME280;22294;52.044;4.582;2022-08-19T10:53:41;74920.25;;;-144.37;58.89
36258;BME280;22294;52.044;4.582;2022-08-19T10:56:06;74924.31;;;-144.37;58.38
36258;BME280;22294;52.044;4.582;2022-08-19T10:58:51;74932.50;;;-144.37;58.44
36258;BME280;22294;52.044;4.582;2022-08-19T11:01:16;74940.69;;;-144.37;59.17
36258;BME280;22294;52.044;4.582;2022-08-19T11:03:41;74957.03;;;-144.37;58.28
36258;BME280;22294;52.044;4.582;2022-08-19T11:06:08;74971.34;;;-144.37;59.26
36258;BME280;22294;52.044;4.582;2022-08-19T11:08:34;74973.41;;;-144.37;59.26
36258;BME280;22294;52.044;4.582;2022-08-19T11:11:03;74979.53;;;-144.37;59.75
36258;BME280;22294;52.044;4.582;2022-08-19T11:13:35;74989.75;;;-144.37;59.37
36258;BME280;22294;52.044;4.582;2022-08-19T11:16:04;74999.97;;;-144.37;59.15
36258;BME280;22294;52.044;4.582;2022-08-19T11:18:29;75008.16;;;-144.37;59.90
36258;BME280;22294;52.044;4.582;2022-08-19T11:21:05;75016.34;;;-144.37;60.31
36258;BME280;22294;52.044;4.582;2022-08-19T11:23:30;75020.41;;;-144.37;60.24
36258;BME280;22294;52.044;4.582;2022-08-19T11:25:56;75028.59;;;-144.37;60.83
36258;BME280;22294;52.044;4.582;2022-08-19T11:28:22;75034.72;;;-144.37;61.11
36258;BME280;22294;52.044;4.582;2022-08-19T11:30:47;75032.69;;;-144.37;61.67
36258;BME280;22294;52.044;4.582;2022-08-19T11:33:12;75030.63;;;-144.37;61.25
36258;BME280;22294;52.044;4.582;2022-08-19T11:35:39;75034.72;;;-144.37;61.04
36258;BME280;22294;52.044;4.582;2022-08-19T11:38:05;75032.69;;;-144.37;60.81
36258;BME280;22294;52.044;4.582;2022-08-19T11:40:30;75032.69;;;-144.37;60.47
36258;BME280;22294;52.044;4.582;2022-08-19T11:42:56;75036.78;;;-144.37;60.46
36258;BME280;22294;52.044;4.582;2022-08-19T11:45:23;75036.78;;;-144.37;60.27
36258;BME280;22294;52.044;4.582;2022-08-19T11:47:48;75038.81;;;-144.37;60.50
36258;BME280;22294;52.044;4.582;2022-08-19T11:50:15;75020.41;;;-144.37;60.04
36258;BME280;22294;52.044;4.582;2022-08-19T11:52:41;75024.50;;;-144.37;59.93
36258;BME280;22294;52.044;4.582;2022-08-19T11:55:10;75006.09;;;-144.37;59.95
36258;BME280;22294;52.044;4.582;2022-08-19T11:57:35;75006.09;;;-144.37;59.62
36258;BME280;22294;52.044;4.582;2022-08-19T12:00:00;75008.16;;;-144.37;59.32
36258;BME280;22294;52.044;4.582;2022-08-19T12:02:26;74995.88;;;-144.37;59.62
36258;BME280;22294;52.044;4.582;2022-08-19T12:04:51;74989.75;;;-144.37;59.85
36258;BME280;22294;52.044;4.582;2022-08-19T12:07:17;74981.56;;;-144.37;59.57
36258;BME280;22294;52.044;4.582;2022-08-19T12:09:42;74971.34;;;-144.37;59.05
36258;BME280;22294;52.044;4.582;2022-08-19T12:12:08;74963.16;;;-144.37;58.62
36258;BME280;22294;52.044;4.582;2022-08-19T12:14:33;74948.84;;;-144.37;59.07
36258;BME280;22294;52.044;4.582;2022-08-19T12:16:59;74942.72;;;-144.37;59.38
36258;BME280;22294;52.044;4.582;2022-08-19T12:19:25;74942.72;;;-144.37;60.15
36258;BME280;22294;52.044;4.582;2022-08-19T12:21:51;74938.63;;;-144.37;60.27
36258;BME280;22294;52.044;4.582;2022-08-19T12:24:18;74955.00;;;-144.37;59.30
36258;BME280;22294;52.044;4.582;2022-08-19T12:26:48;74963.16;;;-144.37;60.01
36258;BME280;22294;52.044;4.582;2022-08-19T12:29:14;74963.16;;;-144.37;59.20
36258;BME280;22294;52.044;4.582;2022-08-19T12:31:40;74952.94;;;-144.37;59.51
36258;BME280;22294;52.044;4.582;2022-08-19T12:34:05;74938.63;;;-144.37;59.20
36258;BME280;22294;52.044;4.582;2022-08-19T12:36:30;74930.47;;;-144.37;58.47
36258;BME280;22294;52.044;4.582;2022-08-19T12:38:57;74910.00;;;-144.37;58.30
36258;BME280;22294;52.044;4.582;2022-08-19T12:41:23;74920.25;;;-144.37;57.80
36258;BME280;22294;52.044;4.582;2022-08-19T12:43:49;74920.25;;;-144.37;58.06
36258;BME280;22294;52.044;4.582;2022-08-19T12:46:14;74928.41;;;-144.37;58.12
36258;BME280;22294;52.044;4.582;2022-08-19T12:48:40;74926.38;;;-144.37;58.62
36258;BME280;22294;52.044;4.582;2022-08-19T12:51:13;74920.25;;;-144.37;58.06